sensor_id;sensor_type;location;lat;lon;timestamp;pressure;altitude;pressure_sealevel;temperature;humidity
47761;BME280;33524;55.434;38.520;2022-07-29T00:01:41;100226.94;;;17.12;85.61
47761;BME280;33524;55.434;38.520;2022-07-29T00:04:10;100230.59;;;16.85;85.61
47761;BME280;33524;55.434;38.520;2022-07-29T00:06:39;100229.78;;;16.85;86.11
47761;BME280;33524;55.434;38.520;2022-07-29T00:09:07;100223.59;;;17.10;83.38
47761;BME280;33524;55.434;38.520;2022-07-29T00:11:36;100228.06;;;17.44;78.88
47761;BME280;33524;55.434;38.520;2022-07-29T00:14:04;100234.38;;;17.35;80.30
47761;BME280;33524;55.434;38.520;2022-07-29T00:16:32;100233.03;;;17.05;83.18
47761;BME280;33524;55.434;38.520;2022-07-29T00:19:00;100240.81;;;16.98;82.83
47761;BME280;33524;55.434;38.520;2022-07-29T00:21:34;100236.41;;;17.15;80.75
47761;BME280;33524;55.434;38.520;2022-07-29T00:24:02;100245.44;;;16.78;84.68
47761;BME280;33524;55.434;38.520;2022-07-29T00:26:30;100258.19;;;16.92;84.14
47761;BME280;33524;55.434;38.520;2022-07-29T00:29:01;100235.06;;;17.11;80.10
47761;BME280;33524;55.434;38.520;2022-07-29T00:31:50;100247.34;;;16.86;82.76
47761;BME280;33524;55.434;38.520;2022-07-29T00:34:18;100246.69;;;16.66;84.40
47761;BME280;33524;55.434;38.520;2022-07-29T00:37:05;100243.50;;;16.62;83.97
47761;BME280;33524;55.434;38.520;2022-07-29T00:39:34;100244.19;;;16.64;83.87
47761;BME280;33524;55.434;38.520;2022-07-29T00:42:04;100254.69;;;16.48;84.68
47761;BME280;33524;55.434;38.520;2022-07-29T00:44:37;100250.81;;;16.24;86.30
47761;BME280;33524;55.434;38.520;2022-07-29T00:47:05;100256.94;;;16.43;84.03
47761;BME280;33524;55.434;38.520;2022-07-29T00:49:34;100262.44;;;17.03;78.79
47761;BME280;33524;55.434;38.520;2022-07-29T00:52:03;100253.19;;;17.15;77.25
47761;BME280;33524;55.434;38.520;2022-07-29T00:54:33;100255.28;;;17.04;79.11
47761;BME280;33524;55.434;38.520;2022-07-29T00:57:01;100266.34;;;16.55;83.23
47761;BME280;33524;55.434;38.520;2022-07-29T00:59:32;100263.28;;;16.68;80.76
47761;BME280;33524;55.434;38.520;2022-07-29T01:02:03;100276.28;;;16.53;83.49
47761;BME280;33524;55.434;38.520;2022-07-29T01:04:31;100276.06;;;16.28;84.07
47761;BME280;33524;55.434;38.520;2022-07-29T01:07:02;100265.25;;;16.66;80.54
47761;BME280;33524;55.434;38.520;2022-07-29T01:09:32;100267.31;;;16.18;85.96
47761;BME280;33524;55.434;38.520;2022-07-29T01:12:16;100269.84;;;16.38;83.61
47761;BME280;33524;55.434;38.520;2022-07-29T01:14:46;100275.66;;;16.59;81.03
47761;BME280;33524;55.434;38.520;2022-07-29T01:17:52;100271.53;;;16.21;84.78
47761;BME280;33524;55.434;38.520;2022-07-29T01:23:29;100268.78;;;16.66;80.10
47761;BME280;33524;55.434;38.520;2022-07-29T01:28:53;100272.53;;;16.10;83.41
47761;BME280;33524;55.434;38.520;2022-07-29T01:34:41;100272.88;;;15.79;86.45
47761;BME280;33524;55.434;38.520;2022-07-29T01:39:56;100265.72;;;15.52;91.47
47761;BME280;33524;55.434;38.520;2022-07-29T01:42:44;100277.13;;;15.62;89.47
47761;BME280;33524;55.434;38.520;2022-07-29T01:45:23;100270.87;;;15.53;90.55
47761;BME280;33524;55.434;38.520;2022-07-29T01:50:35;100276.75;;;16.12;82.33
47761;BME280;33524;55.434;38.520;2022-07-29T01:53:06;100271.00;;;15.89;84.33
47761;BME280;33524;55.434;38.520;2022-07-29T01:55:42;100265.97;;;15.96;83.26
47761;BME280;33524;55.434;38.520;2022-07-29T01:58:14;100263.84;;;15.72;84.79
47761;BME280;33524;55.434;38.520;2022-07-29T02:00:47;100266.97;;;16.13;80.93
47761;BME280;33524;55.434;38.520;2022-07-29T02:03:17;100266.66;;;15.98;82.67
47761;BME280;33524;55.434;38.520;2022-07-29T02:05:47;100274.22;;;16.11;81.62
47761;BME280;33524;55.434;38.520;2022-07-29T02:08:18;100269.53;;;15.77;85.06
47761;BME280;33524;55.434;38.520;2022-07-29T02:10:48;100285.44;;;15.77;84.48
47761;BME280;33524;55.434;38.520;2022-07-29T02:13:18;100284.47;;;15.78;84.22
47761;BME280;33524;55.434;38.520;2022-07-29T02:15:50;100286.28;;;16.05;80.92
47761;BME280;33524;55.434;38.520;2022-07-29T02:18:22;100283.66;;;15.78;84.68
47761;BME280;33524;55.434;38.520;2022-07-29T02:20:54;100285.53;;;15.85;84.00
47761;BME280;33524;55.434;38.520;2022-07-29T02:23:25;100291.97;;;15.83;82.93
47761;BME280;33524;55.434;38.520;2022-07-29T02:25:55;100289.28;;;15.92;82.73
47761;BME280;33524;55.434;38.520;2022-07-29T02:28:29;100292.56;;;15.77;83.23
47761;BME280;33524;55.434;38.520;2022-07-29T02:31:00;100300.00;;;16.01;80.67
47761;BME280;33524;55.434;38.520;2022-07-29T02:33:30;100296.31;;;15.84;82.09
47761;BME280;33524;55.434;38.520;2022-07-29T02:35:59;100298.53;;;15.88;81.96
47761;BME280;33524;55.434;38.520;2022-07-29T02:38:30;100302.78;;;15.62;85.41
47761;BME280;33524;55.434;38.520;2022-07-29T02:41:26;100299.62;;;16.13;79.31
47761;BME280;33524;55.434;38.520;2022-07-29T02:44:04;100306.28;;;15.72;86.42
47761;BME280;33524;55.434;38.520;2022-07-29T02:46:34;100319.41;;;15.73;87.97
47761;BME280;33524;55.434;38.520;2022-07-29T02:52:31;100323.41;;;15.68;91.14
47761;BME280;33524;55.434;38.520;2022-07-29T02:55:25;100316.66;;;15.46;92.60
47761;BME280;33524;55.434;38.520;2022-07-29T02:58:02;100316.97;;;15.80;88.41
47761;BME280;33524;55.434;38.520;2022-07-29T03:00:37;100315.50;;;15.96;84.38
47761;BME280;33524;55.434;38.520;2022-07-29T03:03:10;100321.03;;;15.74;85.67
47761;BME280;33524;55.434;38.520;2022-07-29T03:05:40;100317.44;;;15.66;88.79
47761;BME280;33524;55.434;38.520;2022-07-29T03:08:12;100326.97;;;15.96;84.22
47761;BME280;33524;55.434;38.520;2022-07-29T03:10:44;100318.66;;;16.09;83.68
47761;BME280;33524;55.434;38.520;2022-07-29T03:13:13;100325.28;;;16.23;83.22
47761;BME280;33524;55.434;38.520;2022-07-29T03:15:44;100326.16;;;16.13;83.82
47761;BME280;33524;55.434;38.520;2022-07-29T03:18:13;100323.09;;;16.54;79.52
47761;BME280;33524;55.434;38.520;2022-07-29T03:20:42;100322.37;;;17.06;75.90
47761;BME280;33524;55.434;38.520;2022-07-29T03:23:11;100317.84;;;16.98;77.39
47761;BME280;33524;55.434;38.520;2022-07-29T03:25:38;100322.25;;;16.89;76.69
47761;BME280;33524;55.434;38.520;2022-07-29T03:28:07;100321.97;;;17.19;75.82
47761;BME280;33524;55.434;38.520;2022-07-29T03:30:36;100326.50;;;17.52;72.96
47761;BME280;33524;55.434;38.520;2022-07-29T03:33:04;100322.28;;;17.42;74.32
47761;BME280;33524;55.434;38.520;2022-07-29T03:35:40;100321.22;;;17.61;73.44
47761;BME280;33524;55.434;38.520;2022-07-29T03:38:08;100318.00;;;17.23;75.21
47761;BME280;33524;55.434;38.520;2022-07-29T03:40:46;100321.91;;;17.10;76.69
47761;BME280;33524;55.434;38.520;2022-07-29T03:43:17;100320.62;;;17.75;72.31
47761;BME280;33524;55.434;38.520;2022-07-29T03:45:48;100329.13;;;17.79;72.28
47761;BME280;33524;55.434;38.520;2022-07-29T03:48:21;100329.25;;;18.03;71.44
47761;BME280;33524;55.434;38.520;2022-07-29T03:50:50;100326.19;;;17.90;72.94
47761;BME280;33524;55.434;38.520;2022-07-29T03:53:19;100333.16;;;18.33;70.43
47761;BME280;33524;55.434;38.520;2022-07-29T03:55:50;100330.78;;;18.14;71.30
47761;BME280;33524;55.434;38.520;2022-07-29T03:58:21;100326.50;;;18.29;70.59
47761;BME280;33524;55.434;38.520;2022-07-29T04:00:50;100330.72;;;18.65;69.26
47761;BME280;33524;55.434;38.520;2022-07-29T04:03:19;100326.97;;;17.48;73.84
47761;BME280;33524;55.434;38.520;2022-07-29T04:06:05;100338.09;;;17.43;74.77
47761;BME280;33524;55.434;38.520;2022-07-29T04:08:52;100333.19;;;17.65;73.82
47761;BME280;33524;55.434;38.520;2022-07-29T04:11:20;100333.84;;;17.59;74.95
47761;BME280;33524;55.434;38.520;2022-07-29T04:13:48;100329.88;;;17.63;74.32
47761;BME280;33524;55.434;38.520;2022-07-29T04:16:16;100330.34;;;18.43;70.18
47761;BME280;33524;55.434;38.520;2022-07-29T04:18:44;100329.22;;;18.87;69.58
47761;BME280;33524;55.434;38.520;2022-07-29T04:21:13;100335.87;;;17.99;71.87
47761;BME280;33524;55.434;38.520;2022-07-29T04:23:41;100335.81;;;18.42;70.74
47761;BME280;33524;55.434;38.520;2022-07-29T04:26:20;100334.50;;;18.54;70.37
47761;BME280;33524;55.434;38.520;2022-07-29T04:28:48;100346.19;;;18.69;70.66
47761;BME280;33524;55.434;38.520;2022-07-29T04:31:16;100332.50;;;19.38;69.09
47761;BME280;33524;55.434;38.520;2022-07-29T04:33:52;100333.72;;;19.91;67.24
47761;BME280;33524;55.434;38.520;2022-07-29T04:36:20;100330.03;;;20.78;64.51
47761;BME280;33524;55.434;38.520;2022-07-29T04:38:56;100335.03;;;20.58;63.37
47761;BME280;33524;55.434;38.520;2022-07-29T04:41:24;100338.13;;;20.39;65.58
47761;BME280;33524;55.434;38.520;2022-07-29T04:44:00;100344.19;;;19.37;66.58
47761;BME280;33524;55.434;38.520;2022-07-29T04:46:38;100353.56;;;18.92;69.04
47761;BME280;33524;55.434;38.520;2022-07-29T04:49:07;100341.34;;;18.48;67.28
47761;BME280;33524;55.434;38.520;2022-07-29T04:51:52;100353.78;;;20.42;66.87
47761;BME280;33524;55.434;38.520;2022-07-29T04:54:20;100354.63;;;19.71;65.02
47761;BME280;33524;55.434;38.520;2022-07-29T04:59:16;100341.69;;;22.70;59.45
47761;BME280;33524;55.434;38.520;2022-07-29T05:02:02;100350.72;;;20.61;59.38
47761;BME280;33524;55.434;38.520;2022-07-29T05:04:30;100338.41;;;21.66;63.15
47761;BME280;33524;55.434;38.520;2022-07-29T05:06:59;100343.13;;;23.16;59.21
47761;BME280;33524;55.434;38.520;2022-07-29T05:09:27;100344.38;;;22.70;60.11
47761;BME280;33524;55.434;38.520;2022-07-29T05:11:55;100341.91;;;20.75;63.19
47761;BME280;33524;55.434;38.520;2022-07-29T05:14:23;100335.94;;;21.64;59.98
47761;BME280;33524;55.434;38.520;2022-07-29T05:16:51;100350.09;;;20.51;61.21
47761;BME280;33524;55.434;38.520;2022-07-29T05:19:20;100341.03;;;19.98;59.43
47761;BME280;33524;55.434;38.520;2022-07-29T05:21:48;100339.66;;;21.25;66.46
47761;BME280;33524;55.434;38.520;2022-07-29T05:24:17;100342.66;;;21.22;65.32
47761;BME280;33524;55.434;38.520;2022-07-29T05:26:46;100330.78;;;22.29;62.47
47761;BME280;33524;55.434;38.520;2022-07-29T05:29:14;100340.53;;;21.17;59.88
47761;BME280;33524;55.434;38.520;2022-07-29T05:32:03;100339.13;;;21.89;62.26
47761;BME280;33524;55.434;38.520;2022-07-29T05:34:31;100344.88;;;22.23;56.66
47761;BME280;33524;55.434;38.520;2022-07-29T05:37:02;100338.28;;;21.29;54.57
47761;BME280;33524;55.434;38.520;2022-07-29T05:39:30;100333.19;;;24.21;57.93
47761;BME280;33524;55.434;38.520;2022-07-29T05:42:17;100338.69;;;23.65;58.76
47761;BME280;33524;55.434;38.520;2022-07-29T05:44:45;100341.16;;;25.09;51.06
47761;BME280;33524;55.434;38.520;2022-07-29T05:47:13;100345.22;;;22.49;50.64
47761;BME280;33524;55.434;38.520;2022-07-29T05:49:41;100349.06;;;21.36;50.96
47761;BME280;33524;55.434;38.520;2022-07-29T05:52:09;100349.69;;;22.27;61.07
47761;BME280;33524;55.434;38.520;2022-07-29T05:54:37;100344.06;;;22.80;51.14
47761;BME280;33524;55.434;38.520;2022-07-29T05:57:05;100337.78;;;23.44;53.20
47761;BME280;33524;55.434;38.520;2022-07-29T05:59:37;100335.34;;;23.56;47.56
47761;BME280;33524;55.434;38.520;2022-07-29T06:02:05;100340.28;;;23.17;49.81
47761;BME280;33524;55.434;38.520;2022-07-29T06:04:34;100336.06;;;22.87;50.93
47761;BME280;33524;55.434;38.520;2022-07-29T06:07:02;100334.59;;;23.69;58.47
47761;BME280;33524;55.434;38.520;2022-07-29T06:09:30;100329.59;;;24.69;55.11
47761;BME280;33524;55.434;38.520;2022-07-29T06:11:58;100340.12;;;23.26;52.80
47761;BME280;33524;55.434;38.520;2022-07-29T06:14:26;100342.69;;;23.12;47.79
47761;BME280;33524;55.434;38.520;2022-07-29T06:16:56;100326.44;;;25.52;53.96
47761;BME280;33524;55.434;38.520;2022-07-29T06:19:24;100330.84;;;25.33;54.61
47761;BME280;33524;55.434;38.520;2022-07-29T06:21:52;100325.31;;;24.20;44.69
47761;BME280;33524;55.434;38.520;2022-07-29T06:24:20;100328.25;;;24.25;44.61
47761;BME280;33524;55.434;38.520;2022-07-29T06:26:48;100333.81;;;23.12;42.73
47761;BME280;33524;55.434;38.520;2022-07-29T06:29:16;100329.19;;;26.42;52.40
47761;BME280;33524;55.434;38.520;2022-07-29T06:31:44;100325.16;;;26.58;48.72
47761;BME280;33524;55.434;38.520;2022-07-29T06:34:12;100325.16;;;22.88;43.81
47761;BME280;33524;55.434;38.520;2022-07-29T06:36:41;100329.19;;;24.04;58.11
47761;BME280;33524;55.434;38.520;2022-07-29T06:39:09;100337.03;;;23.92;57.82
47761;BME280;33524;55.434;38.520;2022-07-29T06:41:38;100334.97;;;23.59;56.19
47761;BME280;33524;55.434;38.520;2022-07-29T06:44:08;100319.13;;;24.12;46.71
47761;BME280;33524;55.434;38.520;2022-07-29T06:46:36;100331.09;;;23.05;43.82
47761;BME280;33524;55.434;38.520;2022-07-29T06:49:05;100327.50;;;26.80;50.20
47761;BME280;33524;55.434;38.520;2022-07-29T06:51:33;100332.25;;;26.14;52.18
47761;BME280;33524;55.434;38.520;2022-07-29T06:54:01;100329.94;;;26.63;44.16
47761;BME280;33524;55.434;38.520;2022-07-29T06:56:31;100336.84;;;25.35;53.22
47761;BME280;33524;55.434;38.520;2022-07-29T06:59:07;100342.41;;;26.82;50.33
47761;BME280;33524;55.434;38.520;2022-07-29T07:01:37;100339.81;;;27.44;48.14
47761;BME280;33524;55.434;38.520;2022-07-29T07:04:05;100334.53;;;26.49;41.56
47761;BME280;33524;55.434;38.520;2022-07-29T07:06:34;100341.41;;;26.76;50.56
47761;BME280;33524;55.434;38.520;2022-07-29T07:09:02;100337.81;;;27.95;48.53
47761;BME280;33524;55.434;38.520;2022-07-29T07:11:30;100340.84;;;27.80;47.58
47761;BME280;33524;55.434;38.520;2022-07-29T07:13:58;100347.53;;;26.65;45.04
47761;BME280;33524;55.434;38.520;2022-07-29T07:16:31;100342.03;;;25.36;47.97
47761;BME280;33524;55.434;38.520;2022-07-29T07:18:59;100340.81;;;26.43;46.82
47761;BME280;33524;55.434;38.520;2022-07-29T07:21:28;100340.34;;;27.71;47.66
47761;BME280;33524;55.434;38.520;2022-07-29T07:23:58;100357.81;;;26.05;41.23
47761;BME280;33524;55.434;38.520;2022-07-29T07:26:27;100352.59;;;27.55;39.62
47761;BME280;33524;55.434;38.520;2022-07-29T07:28:55;100345.34;;;29.07;46.46
47761;BME280;33524;55.434;38.520;2022-07-29T07:31:23;100347.69;;;29.39;44.23
47761;BME280;33524;55.434;38.520;2022-07-29T07:33:51;100345.91;;;28.86;45.20
47761;BME280;33524;55.434;38.520;2022-07-29T07:36:21;100347.25;;;29.42;41.37
47761;BME280;33524;55.434;38.520;2022-07-29T07:38:50;100348.75;;;29.73;42.02
47761;BME280;33524;55.434;38.520;2022-07-29T07:41:18;100348.03;;;28.95;46.00
47761;BME280;33524;55.434;38.520;2022-07-29T07:43:46;100359.19;;;27.41;43.40
47761;BME280;33524;55.434;38.520;2022-07-29T07:46:15;100336.22;;;30.53;43.96
47761;BME280;33524;55.434;38.520;2022-07-29T07:48:43;100352.50;;;29.84;44.78
47761;BME280;33524;55.434;38.520;2022-07-29T07:51:12;100346.47;;;28.76;46.13
47761;BME280;33524;55.434;38.520;2022-07-29T07:53:40;100347.09;;;27.44;45.40
47761;BME280;33524;55.434;38.520;2022-07-29T07:56:08;100356.38;;;26.72;43.17
47761;BME280;33524;55.434;38.520;2022-07-29T07:58:38;100356.19;;;27.86;41.09
47761;BME280;33524;55.434;38.520;2022-07-29T08:01:08;100354.44;;;28.59;45.62
47761;BME280;33524;55.434;38.520;2022-07-29T08:03:37;100363.53;;;27.79;37.92
47761;BME280;33524;55.434;38.520;2022-07-29T08:06:05;100355.97;;;28.67;41.60
47761;BME280;33524;55.434;38.520;2022-07-29T08:08:33;100359.00;;;29.60;43.51
47761;BME280;33524;55.434;38.520;2022-07-29T08:11:02;100357.28;;;30.06;35.46
47761;BME280;33524;55.434;38.520;2022-07-29T08:13:36;100357.25;;;29.30;39.41
47761;BME280;33524;55.434;38.520;2022-07-29T08:16:06;100348.97;;;30.70;44.02
47761;BME280;33524;55.434;38.520;2022-07-29T08:18:42;100352.41;;;28.96;35.04
47761;BME280;33524;55.434;38.520;2022-07-29T08:21:12;100356.69;;;28.44;44.59
47761;BME280;33524;55.434;38.520;2022-07-29T08:23:43;100363.50;;;29.42;35.71
47761;BME280;33524;55.434;38.520;2022-07-29T08:26:35;100372.81;;;27.46;49.55
47761;BME280;33524;55.434;38.520;2022-07-29T08:29:03;100347.31;;;30.52;33.68
47761;BME280;33524;55.434;38.520;2022-07-29T08:31:31;100364.12;;;26.94;37.64
47761;BME280;33524;55.434;38.520;2022-07-29T08:33:59;100359.00;;;28.58;35.53
47761;BME280;33524;55.434;38.520;2022-07-29T08:36:28;100358.28;;;28.03;47.48
47761;BME280;33524;55.434;38.520;2022-07-29T08:38:56;100354.97;;;32.01;41.16
47761;BME280;33524;55.434;38.520;2022-07-29T08:41:25;100336.63;;;32.13;30.37
47761;BME280;33524;55.434;38.520;2022-07-29T08:43:54;100347.78;;;29.68;36.99
47761;BME280;33524;55.434;38.520;2022-07-29T08:46:22;100346.63;;;30.16;43.04
47761;BME280;33524;55.434;38.520;2022-07-29T08:48:50;100345.19;;;31.61;33.68
47761;BME280;33524;55.434;38.520;2022-07-29T08:51:20;100347.16;;;31.87;38.52
47761;BME280;33524;55.434;38.520;2022-07-29T08:53:49;100342.59;;;29.66;33.46
47761;BME280;33524;55.434;38.520;2022-07-29T08:56:19;100338.06;;;32.48;40.10
47761;BME280;33524;55.434;38.520;2022-07-29T08:58:47;100344.12;;;30.72;39.71
47761;BME280;33524;55.434;38.520;2022-07-29T09:01:23;100337.25;;;29.19;45.60
47761;BME280;33524;55.434;38.520;2022-07-29T09:04:04;100337.81;;;29.09;34.54
47761;BME280;33524;55.434;38.520;2022-07-29T09:06:37;100357.31;;;28.76;40.17
47761;BME280;33524;55.434;38.520;2022-07-29T09:09:07;100349.31;;;28.93;43.51
47761;BME280;33524;55.434;38.520;2022-07-29T09:11:35;100331.09;;;33.32;38.41
47761;BME280;33524;55.434;38.520;2022-07-29T09:14:04;100335.50;;;32.09;39.82
47761;BME280;33524;55.434;38.520;2022-07-29T09:16:55;100347.12;;;30.42;36.33
47761;BME280;33524;55.434;38.520;2022-07-29T09:19:29;100360.22;;;26.20;38.86
47761;BME280;33524;55.434;38.520;2022-07-29T09:22:28;100351.72;;;25.17;38.51
47761;BME280;33524;55.434;38.520;2022-07-29T09:24:58;100343.97;;;28.32;46.39
47761;BME280;33524;55.434;38.520;2022-07-29T09:27:26;100351.12;;;27.09;36.18
47761;BME280;33524;55.434;38.520;2022-07-29T09:30:05;100360.19;;;24.54;39.91
47761;BME280;33524;55.434;38.520;2022-07-29T09:32:54;100357.75;;;25.06;41.79
47761;BME280;33524;55.434;38.520;2022-07-29T09:35:24;100361.97;;;27.03;48.38
47761;BME280;33524;55.434;38.520;2022-07-29T09:37:53;100354.12;;;27.45;42.62
47761;BME280;33524;55.434;38.520;2022-07-29T09:40:26;100361.66;;;24.09;43.39
47761;BME280;33524;55.434;38.520;2022-07-29T09:42:57;100362.97;;;24.26;45.77
47761;BME280;33524;55.434;38.520;2022-07-29T09:45:32;100362.37;;;27.06;48.91
47761;BME280;33524;55.434;38.520;2022-07-29T09:48:20;100360.13;;;28.81;46.59
47761;BME280;33524;55.434;38.520;2022-07-29T09:50:48;100366.72;;;27.07;43.59
47761;BME280;33524;55.434;38.520;2022-07-29T09:53:32;100366.37;;;27.66;49.25
47761;BME280;33524;55.434;38.520;2022-07-29T09:56:00;100373.47;;;24.89;39.18
47761;BME280;33524;55.434;38.520;2022-07-29T09:58:29;100369.72;;;24.97;40.65
47761;BME280;33524;55.434;38.520;2022-07-29T10:01:27;100368.09;;;24.96;47.27
47761;BME280;33524;55.434;38.520;2022-07-29T10:03:56;100354.00;;;25.01;42.68
47761;BME280;33524;55.434;38.520;2022-07-29T10:06:58;100360.88;;;26.15;39.95
47761;BME280;33524;55.434;38.520;2022-07-29T10:09:32;100354.06;;;26.06;40.02
47761;BME280;33524;55.434;38.520;2022-07-29T10:12:11;100352.97;;;24.82;37.28
47761;BME280;33524;55.434;38.520;2022-07-29T10:14:42;100349.81;;;27.81;47.96
47761;BME280;33524;55.434;38.520;2022-07-29T10:17:10;100340.97;;;30.63;40.20
47761;BME280;33524;55.434;38.520;2022-07-29T10:19:39;100343.84;;;26.21;34.35
47761;BME280;33524;55.434;38.520;2022-07-29T10:22:09;100342.66;;;26.04;37.77
47761;BME280;33524;55.434;38.520;2022-07-29T10:24:39;100339.16;;;28.04;41.20
47761;BME280;33524;55.434;38.520;2022-07-29T10:27:08;100333.22;;;30.55;40.31
47761;BME280;33524;55.434;38.520;2022-07-29T10:29:36;100343.56;;;29.60;30.70
47761;BME280;33524;55.434;38.520;2022-07-29T10:32:20;100337.88;;;31.22;39.30
47761;BME280;33524;55.434;38.520;2022-07-29T10:40:53;100342.84;;;30.17;35.23
47761;BME280;33524;55.434;38.520;2022-07-29T10:43:46;100342.81;;;29.88;30.14
47761;BME280;33524;55.434;38.520;2022-07-29T10:46:19;100334.50;;;30.81;37.90
47761;BME280;33524;55.434;38.520;2022-07-29T10:49:17;100340.28;;;29.34;29.56
47761;BME280;33524;55.434;38.520;2022-07-29T10:54:49;100347.94;;;26.69;34.61
47761;BME280;33524;55.434;38.520;2022-07-29T10:57:30;100347.28;;;25.96;33.68
47761;BME280;33524;55.434;38.520;2022-07-29T11:00:29;100348.41;;;26.59;38.26
47761;BME280;33524;55.434;38.520;2022-07-29T11:02:58;100345.63;;;25.82;35.09
47761;BME280;33524;55.434;38.520;2022-07-29T11:05:54;100331.72;;;29.26;40.32
47761;BME280;33524;55.434;38.520;2022-07-29T11:08:26;100341.75;;;26.55;34.88
47761;BME280;33524;55.434;38.520;2022-07-29T11:13:56;100341.00;;;30.06;31.00
47761;BME280;33524;55.434;38.520;2022-07-29T11:16:24;100331.47;;;32.16;34.26
47761;BME280;33524;55.434;38.520;2022-07-29T11:21:42;100329.34;;;31.74;28.73
47761;BME280;33524;55.434;38.520;2022-07-29T11:24:27;100329.31;;;30.80;30.99
47761;BME280;33524;55.434;38.520;2022-07-29T11:27:15;100351.84;;;27.67;39.33
47761;BME280;33524;55.434;38.520;2022-07-29T11:29:51;100338.03;;;29.43;32.50
47761;BME280;33524;55.434;38.520;2022-07-29T11:32:21;100337.25;;;28.05;35.24
47761;BME280;33524;55.434;38.520;2022-07-29T11:38:24;100340.88;;;27.62;33.32
47761;BME280;33524;55.434;38.520;2022-07-29T11:43:54;100349.63;;;28.73;38.26
47761;BME280;33524;55.434;38.520;2022-07-29T11:46:43;100340.50;;;29.09;37.50
47761;BME280;33524;55.434;38.520;2022-07-29T11:49:13;100341.53;;;28.85;31.83
47761;BME280;33524;55.434;38.520;2022-07-29T11:51:52;100344.94;;;28.92;30.79
47761;BME280;33524;55.434;38.520;2022-07-29T11:54:31;100343.69;;;28.22;33.18
47761;BME280;33524;55.434;38.520;2022-07-29T11:57:20;100348.31;;;29.29;30.22
47761;BME280;33524;55.434;38.520;2022-07-29T11:59:49;100349.69;;;28.96;32.50
47761;BME280;33524;55.434;38.520;2022-07-29T12:02:42;100342.59;;;28.95;32.79
47761;BME280;33524;55.434;38.520;2022-07-29T12:05:15;100336.78;;;29.34;31.17
47761;BME280;33524;55.434;38.520;2022-07-29T12:10:42;100347.84;;;28.55;32.91
47761;BME280;33524;55.434;38.520;2022-07-29T12:13:11;100350.59;;;27.26;34.45
47761;BME280;33524;55.434;38.520;2022-07-29T12:15:39;100354.91;;;29.22;33.65
47761;BME280;33524;55.434;38.520;2022-07-29T12:18:17;100352.13;;;28.14;33.10
47761;BME280;33524;55.434;38.520;2022-07-29T12:21:00;100353.66;;;28.94;32.92
47761;BME280;33524;55.434;38.520;2022-07-29T12:23:32;100345.34;;;30.07;31.51
47761;BME280;33524;55.434;38.520;2022-07-29T12:26:05;100352.72;;;28.76;33.17
47761;BME280;33524;55.434;38.520;2022-07-29T12:28:51;100356.44;;;28.33;33.44
47761;BME280;33524;55.434;38.520;2022-07-29T12:31:22;100363.41;;;27.55;35.06
47761;BME280;33524;55.434;38.520;2022-07-29T12:34:11;100353.84;;;28.57;42.92
47761;BME280;33524;55.434;38.520;2022-07-29T12:36:41;100350.28;;;29.10;38.97
47761;BME280;33524;55.434;38.520;2022-07-29T12:39:10;100351.16;;;29.11;32.17
47761;BME280;33524;55.434;38.520;2022-07-29T12:41:39;100349.50;;;30.55;32.79
47761;BME280;33524;55.434;38.520;2022-07-29T12:44:07;100353.94;;;27.83;34.40
47761;BME280;33524;55.434;38.520;2022-07-29T12:46:35;100364.28;;;27.68;34.28
47761;BME280;33524;55.434;38.520;2022-07-29T12:49:06;100359.34;;;26.71;36.69
47761;BME280;33524;55.434;38.520;2022-07-29T12:51:36;100356.72;;;26.57;37.64
47761;BME280;33524;55.434;38.520;2022-07-29T12:54:10;100359.44;;;27.08;37.76
47761;BME280;33524;55.434;38.520;2022-07-29T12:56:39;100363.38;;;27.74;38.63
47761;BME280;33524;55.434;38.520;2022-07-29T12:59:14;100348.03;;;28.23;35.11
47761;BME280;33524;55.434;38.520;2022-07-29T13:01:43;100364.56;;;27.16;36.92
47761;BME280;33524;55.434;38.520;2022-07-29T13:04:27;100356.38;;;27.04;35.45
47761;BME280;33524;55.434;38.520;2022-07-29T13:07:05;100347.72;;;29.15;32.53
47761;BME280;33524;55.434;38.520;2022-07-29T13:10:10;100357.44;;;31.41;30.76
47761;BME280;33524;55.434;38.520;2022-07-29T13:12:39;100354.28;;;32.37;27.82
47761;BME280;33524;55.434;38.520;2022-07-29T13:15:27;100342.97;;;33.10;25.66
47761;BME280;33524;55.434;38.520;2022-07-29T13:17:55;100355.87;;;31.89;27.85
47761;BME280;33524;55.434;38.520;2022-07-29T13:20:25;100344.84;;;30.67;28.13
47761;BME280;33524;55.434;38.520;2022-07-29T13:22:59;100356.44;;;30.46;29.80
47761;BME280;33524;55.434;38.520;2022-07-29T13:25:29;100359.19;;;28.75;33.04
47761;BME280;33524;55.434;38.520;2022-07-29T13:27:59;100354.03;;;28.25;33.67
47761;BME280;33524;55.434;38.520;2022-07-29T13:30:27;100358.00;;;27.92;34.40
47761;BME280;33524;55.434;38.520;2022-07-29T13:32:56;100352.94;;;30.33;31.03
47761;BME280;33524;55.434;38.520;2022-07-29T13:35:25;100360.69;;;30.01;29.92
47761;BME280;33524;55.434;38.520;2022-07-29T13:37:53;100361.50;;;28.42;32.95
47761;BME280;33524;55.434;38.520;2022-07-29T13:40:21;100361.72;;;29.71;31.37
47761;BME280;33524;55.434;38.520;2022-07-29T13:42:49;100363.94;;;31.40;29.19
47761;BME280;33524;55.434;38.520;2022-07-29T13:45:17;100353.94;;;33.26;25.74
47761;BME280;33524;55.434;38.520;2022-07-29T13:47:46;100352.56;;;34.44;24.99
47761;BME280;33524;55.434;38.520;2022-07-29T13:50:16;100354.19;;;35.12;23.61
47761;BME280;33524;55.434;38.520;2022-07-29T13:52:44;100358.87;;;32.10;26.05